Hovedside
METAR-TAF:

METAR-TAF

Lufthavner :

Bobo Dioulasso lufthavn

Bobo-Dioulasso, Burkina Faso

breddegrad: 11-10N, lengdegrad: 004-19W, høyde over havet: 460 m

Gjeldene værobservasjon

Denne rapporten ble laget for 39 minutter siden, klokken 22:00 UTC
Vind 3 kt fra Sør-sørvest
Temperatur 26°C
Luftfuktighet 89%
Trykk 1013 hPa
Sikt 10 km eller mer
ingen skyer under 1500 m og ingen bygeskyer

METAR: DFOO 252200Z 21003KT CAVOK 26/24 Q1013

Tid: 22:39 (22:39 UTC)

Varsel

Denne rapporten ble laget for 5 timer og 39 minutter siden, klokken 17:00 UTC
Varsel gyldig fra 25. klokken 18 UTC til 26. klokken 18 UTC
Vind 8 kt fra Sør
Sikt 10 km eller mer
Spredte skyer i en høyde av 2000 ft
Sannsynlighet 30% :
Midlertidig
fra 25. klokken 18 UTC til 26. klokken 02 UTC
Sikt: 4000 m
Spredte skyer i en høyde av 2000 ft
Få skyer i en høyde av 3300 ft, Bygeskyer.
torden, regn,

TAF: DFOO 251700Z 2518/2618 18008KT 9999 SCT020 PROB30 TEMPO 2518/2602 4000 TSRA SCT020 FEW033CB

Værobservasjoner og værvarsel for over 4000 flyplasser (METAR- og TAF-rapporter).

Tilgjengelige stasjoner er representert av de røde og gule prikkene på kartet.

Hold musepekeren over prikken for å se navnet på stasjonen.

Klikk så for å se værobservasjoner og -varsler.

For å forandre kartet kan du klikke på den grønne knappen med svart kryss for å zoome inn, på den grønne knappen med strek for å zoome ut, eller på de grønne pilene for å se tilstøtende kart.


METAR-TAF: